sensor_id;sensor_type;location;lat;lon;timestamp;pressure;altitude;pressure_sealevel;temperature;humidity
67457;BME280;54319;52.038;4.640;2022-12-18T00:02:01;46726.28;;;-144.53;92.16
67457;BME280;54319;52.038;4.640;2022-12-18T00:04:28;46672.50;;;-144.53;91.81
67457;BME280;54319;52.038;4.640;2022-12-18T00:06:57;46724.31;;;-144.53;92.16
67457;BME280;54319;52.038;4.640;2022-12-18T00:09:24;46708.38;;;-144.53;91.76
67457;BME280;54319;52.038;4.640;2022-12-18T00:11:51;46696.41;;;-144.53;91.73
67457;BME280;54319;52.038;4.640;2022-12-18T00:14:18;46712.34;;;-144.53;91.71
67457;BME280;54319;52.038;4.640;2022-12-18T00:16:46;46740.25;;;-144.53;91.82
67457;BME280;54319;52.038;4.640;2022-12-18T00:19:14;46700.41;;;-144.53;92.07
67457;BME280;54319;52.038;4.640;2022-12-18T00:21:42;46698.41;;;-144.53;91.96
67457;BME280;54319;52.038;4.640;2022-12-18T00:24:11;46714.34;;;-144.53;91.97
67457;BME280;54319;52.038;4.640;2022-12-18T00:26:38;46734.25;;;-144.53;91.92
67457;BME280;54319;52.038;4.640;2022-12-18T00:29:09;46694.41;;;-144.53;91.71
67457;BME280;54319;52.038;4.640;2022-12-18T00:31:37;46696.41;;;-144.53;91.68
67457;BME280;54319;52.038;4.640;2022-12-18T00:34:03;46702.38;;;-144.53;91.97
67457;BME280;54319;52.038;4.640;2022-12-18T00:36:32;46684.47;;;-144.53;91.67
67457;BME280;54319;52.038;4.640;2022-12-18T00:39:01;46676.50;;;-144.53;91.58
67457;BME280;54319;52.038;4.640;2022-12-18T00:41:30;46688.44;;;-144.53;91.65
67457;BME280;54319;52.038;4.640;2022-12-18T00:44:20;46722.31;;;-144.53;91.79
67457;BME280;54319;52.038;4.640;2022-12-18T00:46:47;46704.38;;;-144.53;91.77
67457;BME280;54319;52.038;4.640;2022-12-18T00:49:16;46690.44;;;-144.53;91.63
67457;BME280;54319;52.038;4.640;2022-12-18T00:51:43;46694.41;;;-144.53;92.11
67457;BME280;54319;52.038;4.640;2022-12-18T00:54:10;46716.34;;;-144.53;92.01
67457;BME280;54319;52.038;4.640;2022-12-18T00:56:38;46662.53;;;-144.53;91.64
67457;BME280;54319;52.038;4.640;2022-12-18T00:59:06;46700.41;;;-144.53;92.04
67457;BME280;54319;52.038;4.640;2022-12-18T01:01:33;46718.31;;;-144.53;91.73
67457;BME280;54319;52.038;4.640;2022-12-18T01:04:01;46712.34;;;-144.53;91.98
67457;BME280;54319;52.038;4.640;2022-12-18T01:06:28;46690.44;;;-144.53;91.94
67457;BME280;54319;52.038;4.640;2022-12-18T01:08:57;46718.31;;;-144.53;91.60
67457;BME280;54319;52.038;4.640;2022-12-18T01:11:24;46704.38;;;-144.53;91.63
67457;BME280;54319;52.038;4.640;2022-12-18T01:13:53;46706.38;;;-144.53;92.00
67457;BME280;54319;52.038;4.640;2022-12-18T01:16:20;46724.31;;;-144.53;91.90
67457;BME280;54319;52.038;4.640;2022-12-18T01:18:51;46688.44;;;-144.53;91.68
67457;BME280;54319;52.038;4.640;2022-12-18T01:21:18;46702.38;;;-144.53;91.98
67457;BME280;54319;52.038;4.640;2022-12-18T01:23:45;46664.53;;;-144.53;91.76
67457;BME280;54319;52.038;4.640;2022-12-18T01:26:14;46702.38;;;-144.53;91.91
67457;BME280;54319;52.038;4.640;2022-12-18T01:28:43;46708.38;;;-144.53;91.71
67457;BME280;54319;52.038;4.640;2022-12-18T01:31:20;46672.50;;;-144.53;91.95
67457;BME280;54319;52.038;4.640;2022-12-18T01:33:48;46698.41;;;-144.53;91.67
67457;BME280;54319;52.038;4.640;2022-12-18T01:36:17;46672.50;;;-144.53;92.04
67457;BME280;54319;52.038;4.640;2022-12-18T01:38:46;46696.41;;;-144.53;92.05
67457;BME280;54319;52.038;4.640;2022-12-18T01:41:13;46702.38;;;-144.53;91.83
67457;BME280;54319;52.038;4.640;2022-12-18T01:43:46;46706.38;;;-144.53;91.59
67457;BME280;54319;52.038;4.640;2022-12-18T01:46:13;46700.41;;;-144.53;91.63
67457;BME280;54319;52.038;4.640;2022-12-18T01:48:42;46654.56;;;-144.53;91.65
67457;BME280;54319;52.038;4.640;2022-12-18T01:51:11;46704.38;;;-144.53;91.50
67457;BME280;54319;52.038;4.640;2022-12-18T01:53:39;46708.38;;;-144.53;91.64
67457;BME280;54319;52.038;4.640;2022-12-18T01:56:07;46690.44;;;-144.53;91.67
67457;BME280;54319;52.038;4.640;2022-12-18T01:58:40;46686.44;;;-144.53;91.65
67457;BME280;54319;52.038;4.640;2022-12-18T02:01:09;46692.44;;;-144.53;91.36
67457;BME280;54319;52.038;4.640;2022-12-18T02:03:36;46682.47;;;-144.53;91.21
67457;BME280;54319;52.038;4.640;2022-12-18T02:06:12;46716.34;;;-144.53;91.39
67457;BME280;54319;52.038;4.640;2022-12-18T02:08:48;46708.38;;;-144.53;90.91
67457;BME280;54319;52.038;4.640;2022-12-18T02:11:24;46670.50;;;-144.53;90.85
67457;BME280;54319;52.038;4.640;2022-12-18T02:14:02;46634.66;;;-144.53;91.02
67457;BME280;54319;52.038;4.640;2022-12-18T02:16:39;46670.50;;;-144.53;90.98
67457;BME280;54319;52.038;4.640;2022-12-18T02:19:19;46688.44;;;-144.53;90.90
67457;BME280;54319;52.038;4.640;2022-12-18T02:21:55;46660.56;;;-144.53;90.76
67457;BME280;54319;52.038;4.640;2022-12-18T02:24:30;46690.44;;;-144.53;90.68
67457;BME280;54319;52.038;4.640;2022-12-18T02:27:05;46660.56;;;-144.53;90.48
67457;BME280;54319;52.038;4.640;2022-12-18T02:29:36;46690.44;;;-144.53;90.16
67457;BME280;54319;52.038;4.640;2022-12-18T02:32:08;46690.44;;;-144.53;90.25
67457;BME280;54319;52.038;4.640;2022-12-18T02:34:38;46698.41;;;-144.53;90.35
67457;BME280;54319;52.038;4.640;2022-12-18T02:37:10;46688.44;;;-144.53;90.25
67457;BME280;54319;52.038;4.640;2022-12-18T02:39:40;46690.44;;;-144.53;90.01
67457;BME280;54319;52.038;4.640;2022-12-18T02:42:10;46688.44;;;-144.53;90.30
67457;BME280;54319;52.038;4.640;2022-12-18T02:44:42;46704.38;;;-144.53;90.11
67457;BME280;54319;52.038;4.640;2022-12-18T02:47:10;46678.47;;;-144.53;90.11
67457;BME280;54319;52.038;4.640;2022-12-18T02:49:48;46682.47;;;-144.53;90.31
67457;BME280;54319;52.038;4.640;2022-12-18T02:52:27;46692.44;;;-144.53;89.98
67457;BME280;54319;52.038;4.640;2022-12-18T02:55:07;46704.38;;;-144.53;90.09
67457;BME280;54319;52.038;4.640;2022-12-18T02:57:46;46668.53;;;-144.53;90.46
67457;BME280;54319;52.038;4.640;2022-12-18T03:00:18;46678.47;;;-144.53;90.14
67457;BME280;54319;52.038;4.640;2022-12-18T03:02:48;46698.41;;;-144.53;90.41
67457;BME280;54319;52.038;4.640;2022-12-18T03:05:22;46672.50;;;-144.53;90.50
67457;BME280;54319;52.038;4.640;2022-12-18T03:07:55;46652.59;;;-144.53;90.44
67457;BME280;54319;52.038;4.640;2022-12-18T03:10:26;46678.47;;;-144.53;90.87
67457;BME280;54319;52.038;4.640;2022-12-18T03:13:02;46678.47;;;-144.53;90.78
67457;BME280;54319;52.038;4.640;2022-12-18T03:15:31;46658.56;;;-144.53;90.83
67457;BME280;54319;52.038;4.640;2022-12-18T03:18:04;46630.66;;;-144.53;90.96
67457;BME280;54319;52.038;4.640;2022-12-18T03:20:34;46676.50;;;-144.53;90.80
67457;BME280;54319;52.038;4.640;2022-12-18T03:23:07;46644.63;;;-144.53;91.07
67457;BME280;54319;52.038;4.640;2022-12-18T03:25:38;46660.56;;;-144.53;90.91
67457;BME280;54319;52.038;4.640;2022-12-18T03:28:12;46704.38;;;-144.53;90.56
67457;BME280;54319;52.038;4.640;2022-12-18T03:30:41;46656.56;;;-144.53;90.54
67457;BME280;54319;52.038;4.640;2022-12-18T03:33:11;46716.34;;;-144.53;90.86
67457;BME280;54319;52.038;4.640;2022-12-18T03:35:41;46692.44;;;-144.53;90.59
67457;BME280;54319;52.038;4.640;2022-12-18T03:38:09;46698.41;;;-144.53;90.73
67457;BME280;54319;52.038;4.640;2022-12-18T03:40:44;46672.50;;;-144.53;90.50
67457;BME280;54319;52.038;4.640;2022-12-18T03:43:20;46686.44;;;-144.53;90.45
67457;BME280;54319;52.038;4.640;2022-12-18T03:46:02;46674.50;;;-144.53;90.19
67457;BME280;54319;52.038;4.640;2022-12-18T03:48:35;46688.44;;;-144.53;90.44
67457;BME280;54319;52.038;4.640;2022-12-18T03:51:07;46654.56;;;-144.53;90.49
67457;BME280;54319;52.038;4.640;2022-12-18T03:53:39;46646.59;;;-144.53;90.32
67457;BME280;54319;52.038;4.640;2022-12-18T03:56:09;46680.47;;;-144.53;90.48
67457;BME280;54319;52.038;4.640;2022-12-18T03:58:40;46678.47;;;-144.53;90.30
67457;BME280;54319;52.038;4.640;2022-12-18T04:01:08;46660.56;;;-144.53;90.38
67457;BME280;54319;52.038;4.640;2022-12-18T04:03:37;46666.53;;;-144.53;90.63
67457;BME280;54319;52.038;4.640;2022-12-18T04:06:05;46646.59;;;-144.53;90.46
67457;BME280;54319;52.038;4.640;2022-12-18T04:08:33;46666.53;;;-144.53;90.23
67457;BME280;54319;52.038;4.640;2022-12-18T04:11:01;46650.59;;;-144.53;90.39
67457;BME280;54319;52.038;4.640;2022-12-18T04:13:29;46690.44;;;-144.53;90.33
67457;BME280;54319;52.038;4.640;2022-12-18T04:15:57;46674.50;;;-144.53;90.51
67457;BME280;54319;52.038;4.640;2022-12-18T04:18:25;46696.41;;;-144.53;90.46
67457;BME280;54319;52.038;4.640;2022-12-18T04:20:51;46656.56;;;-144.53;90.22
67457;BME280;54319;52.038;4.640;2022-12-18T04:23:18;46646.59;;;-144.53;90.34
67457;BME280;54319;52.038;4.640;2022-12-18T04:25:46;46628.69;;;-144.53;90.35
67457;BME280;54319;52.038;4.640;2022-12-18T04:28:13;46702.38;;;-144.53;90.33
67457;BME280;54319;52.038;4.640;2022-12-18T04:30:41;46672.50;;;-144.53;90.28
67457;BME280;54319;52.038;4.640;2022-12-18T04:33:10;46648.59;;;-144.53;90.13
67457;BME280;54319;52.038;4.640;2022-12-18T04:35:37;46656.56;;;-144.53;90.28
67457;BME280;54319;52.038;4.640;2022-12-18T04:38:05;46662.53;;;-144.53;90.20
67457;BME280;54319;52.038;4.640;2022-12-18T04:40:35;46680.47;;;-144.53;90.15
67457;BME280;54319;52.038;4.640;2022-12-18T04:43:02;46658.56;;;-144.53;90.17
67457;BME280;54319;52.038;4.640;2022-12-18T04:45:29;46644.63;;;-144.53;90.04
67457;BME280;54319;52.038;4.640;2022-12-18T04:47:57;46670.50;;;-144.53;90.10
67457;BME280;54319;52.038;4.640;2022-12-18T04:50:25;46682.47;;;-144.53;90.01
67457;BME280;54319;52.038;4.640;2022-12-18T04:52:52;46684.47;;;-144.53;90.10
67457;BME280;54319;52.038;4.640;2022-12-18T04:55:19;46636.66;;;-144.53;90.15
67457;BME280;54319;52.038;4.640;2022-12-18T04:57:46;46652.59;;;-144.53;90.04
67457;BME280;54319;52.038;4.640;2022-12-18T05:00:14;46642.63;;;-144.53;90.07
67457;BME280;54319;52.038;4.640;2022-12-18T05:02:40;46664.53;;;-144.53;90.01
67457;BME280;54319;52.038;4.640;2022-12-18T05:05:08;46640.63;;;-144.53;89.98
67457;BME280;54319;52.038;4.640;2022-12-18T05:07:36;46648.59;;;-144.53;90.10
67457;BME280;54319;52.038;4.640;2022-12-18T05:10:03;46636.66;;;-144.53;90.21
67457;BME280;54319;52.038;4.640;2022-12-18T05:12:32;46620.72;;;-144.53;90.14
67457;BME280;54319;52.038;4.640;2022-12-18T05:14:58;46688.44;;;-144.53;90.03
67457;BME280;54319;52.038;4.640;2022-12-18T05:17:26;46652.59;;;-144.53;90.09
67457;BME280;54319;52.038;4.640;2022-12-18T05:19:53;46652.59;;;-144.53;90.04
67457;BME280;54319;52.038;4.640;2022-12-18T05:22:20;46608.75;;;-144.53;90.04
67457;BME280;54319;52.038;4.640;2022-12-18T05:24:48;46656.56;;;-144.53;89.90
67457;BME280;54319;52.038;4.640;2022-12-18T05:27:15;46640.63;;;-144.53;90.07
67457;BME280;54319;52.038;4.640;2022-12-18T05:29:44;46674.50;;;-144.53;89.99
67457;BME280;54319;52.038;4.640;2022-12-18T05:32:11;46630.66;;;-144.53;89.86
67457;BME280;54319;52.038;4.640;2022-12-18T05:34:38;46632.66;;;-144.53;89.94
67457;BME280;54319;52.038;4.640;2022-12-18T05:37:05;46666.53;;;-144.53;89.92
67457;BME280;54319;52.038;4.640;2022-12-18T05:39:31;46636.66;;;-144.53;89.93
67457;BME280;54319;52.038;4.640;2022-12-18T05:41:59;46636.66;;;-144.53;89.82
67457;BME280;54319;52.038;4.640;2022-12-18T05:44:26;46648.59;;;-144.53;89.75
67457;BME280;54319;52.038;4.640;2022-12-18T05:46:54;46682.47;;;-144.53;89.76
67457;BME280;54319;52.038;4.640;2022-12-18T05:49:20;46650.59;;;-144.53;89.80
67457;BME280;54319;52.038;4.640;2022-12-18T05:51:47;46640.63;;;-144.53;89.74
67457;BME280;54319;52.038;4.640;2022-12-18T05:54:14;46670.50;;;-144.53;89.84
67457;BME280;54319;52.038;4.640;2022-12-18T05:56:41;46632.66;;;-144.53;89.82
67457;BME280;54319;52.038;4.640;2022-12-18T05:59:09;46624.69;;;-144.53;89.75
67457;BME280;54319;52.038;4.640;2022-12-18T06:01:36;46676.50;;;-144.53;89.75
67457;BME280;54319;52.038;4.640;2022-12-18T06:04:03;46632.66;;;-144.53;89.42
67457;BME280;54319;52.038;4.640;2022-12-18T06:06:31;46664.53;;;-144.53;89.59
67457;BME280;54319;52.038;4.640;2022-12-18T06:08:57;46644.63;;;-144.53;89.57
67457;BME280;54319;52.038;4.640;2022-12-18T06:11:27;46640.63;;;-144.53;89.42
67457;BME280;54319;52.038;4.640;2022-12-18T06:13:55;46684.47;;;-144.53;89.29
67457;BME280;54319;52.038;4.640;2022-12-18T06:16:24;46660.56;;;-144.53;89.26
67457;BME280;54319;52.038;4.640;2022-12-18T06:18:51;46664.53;;;-144.53;89.36
67457;BME280;54319;52.038;4.640;2022-12-18T06:21:18;46650.59;;;-144.53;89.01
67457;BME280;54319;52.038;4.640;2022-12-18T06:23:45;46668.53;;;-144.53;88.70
67457;BME280;54319;52.038;4.640;2022-12-18T06:26:12;46692.44;;;-144.53;88.79
67457;BME280;54319;52.038;4.640;2022-12-18T06:28:39;46640.63;;;-144.53;88.80
67457;BME280;54319;52.038;4.640;2022-12-18T06:31:06;46650.59;;;-144.53;88.56
67457;BME280;54319;52.038;4.640;2022-12-18T06:33:36;46656.56;;;-144.53;88.41
67457;BME280;54319;52.038;4.640;2022-12-18T06:36:05;46652.59;;;-144.53;88.38
67457;BME280;54319;52.038;4.640;2022-12-18T06:38:33;46624.69;;;-144.53;87.98
67457;BME280;54319;52.038;4.640;2022-12-18T06:41:00;46624.69;;;-144.53;88.03
67457;BME280;54319;52.038;4.640;2022-12-18T06:43:27;46664.53;;;-144.53;87.95
67457;BME280;54319;52.038;4.640;2022-12-18T06:45:58;46666.53;;;-144.53;87.75
67457;BME280;54319;52.038;4.640;2022-12-18T06:48:26;46642.63;;;-144.53;87.73
67457;BME280;54319;52.038;4.640;2022-12-18T06:50:55;46614.72;;;-144.53;87.46
67457;BME280;54319;52.038;4.640;2022-12-18T06:53:22;46648.59;;;-144.53;87.21
67457;BME280;54319;52.038;4.640;2022-12-18T06:55:49;46614.72;;;-144.53;87.10
67457;BME280;54319;52.038;4.640;2022-12-18T06:58:17;46660.56;;;-144.53;87.03
67457;BME280;54319;52.038;4.640;2022-12-18T07:00:43;46644.63;;;-144.53;87.00
67457;BME280;54319;52.038;4.640;2022-12-18T07:03:10;46628.69;;;-144.53;86.87
67457;BME280;54319;52.038;4.640;2022-12-18T07:05:39;46628.69;;;-144.53;86.74
67457;BME280;54319;52.038;4.640;2022-12-18T07:08:08;46628.69;;;-144.53;86.71
67457;BME280;54319;52.038;4.640;2022-12-18T07:10:41;46682.47;;;-144.53;86.58
67457;BME280;54319;52.038;4.640;2022-12-18T07:13:08;46650.59;;;-144.53;86.57
67457;BME280;54319;52.038;4.640;2022-12-18T07:15:35;46624.69;;;-144.53;86.38
67457;BME280;54319;52.038;4.640;2022-12-18T07:18:03;46644.63;;;-144.53;86.20
67457;BME280;54319;52.038;4.640;2022-12-18T07:20:29;46660.56;;;-144.53;85.90
67457;BME280;54319;52.038;4.640;2022-12-18T07:22:56;46656.56;;;-144.53;85.63
67457;BME280;54319;52.038;4.640;2022-12-18T07:25:24;46672.50;;;-144.53;85.57
67457;BME280;54319;52.038;4.640;2022-12-18T07:27:51;46668.53;;;-144.53;85.33
67457;BME280;54319;52.038;4.640;2022-12-18T07:30:18;46688.44;;;-144.53;85.11
67457;BME280;54319;52.038;4.640;2022-12-18T07:32:45;46652.59;;;-144.53;85.34
67457;BME280;54319;52.038;4.640;2022-12-18T07:35:12;46666.53;;;-144.53;85.00
67457;BME280;54319;52.038;4.640;2022-12-18T07:37:39;46684.47;;;-144.53;84.78
67457;BME280;54319;52.038;4.640;2022-12-18T07:40:07;46628.69;;;-144.53;84.71
67457;BME280;54319;52.038;4.640;2022-12-18T07:42:35;46636.66;;;-144.53;84.73
67457;BME280;54319;52.038;4.640;2022-12-18T07:45:04;46638.63;;;-144.53;84.28
67457;BME280;54319;52.038;4.640;2022-12-18T07:47:34;46626.69;;;-144.53;84.23
67457;BME280;54319;52.038;4.640;2022-12-18T07:50:01;46632.66;;;-144.53;84.20
67457;BME280;54319;52.038;4.640;2022-12-18T07:52:29;46648.59;;;-144.53;84.06
67457;BME280;54319;52.038;4.640;2022-12-18T07:54:56;46666.53;;;-144.53;83.98
67457;BME280;54319;52.038;4.640;2022-12-18T07:57:23;46668.53;;;-144.53;83.55
67457;BME280;54319;52.038;4.640;2022-12-18T07:59:51;46668.53;;;-144.53;83.14
67457;BME280;54319;52.038;4.640;2022-12-18T08:02:18;46640.63;;;-144.53;82.69
67457;BME280;54319;52.038;4.640;2022-12-18T08:04:44;46672.50;;;-144.53;82.40
67457;BME280;54319;52.038;4.640;2022-12-18T08:07:12;46664.53;;;-144.53;82.32
67457;BME280;54319;52.038;4.640;2022-12-18T08:09:39;46644.63;;;-144.53;81.79
67457;BME280;54319;52.038;4.640;2022-12-18T08:12:06;46636.66;;;-144.53;82.30
67457;BME280;54319;52.038;4.640;2022-12-18T08:14:33;46664.53;;;-144.53;82.03
67457;BME280;54319;52.038;4.640;2022-12-18T08:17:02;46628.69;;;-144.53;82.04
67457;BME280;54319;52.038;4.640;2022-12-18T08:19:28;46648.59;;;-144.53;82.06
67457;BME280;54319;52.038;4.640;2022-12-18T08:21:55;46662.53;;;-144.53;81.99
67457;BME280;54319;52.038;4.640;2022-12-18T08:24:22;46648.59;;;-144.53;81.80
67457;BME280;54319;52.038;4.640;2022-12-18T08:26:49;46648.59;;;-144.53;81.82
67457;BME280;54319;52.038;4.640;2022-12-18T08:29:16;46666.53;;;-144.53;81.84
67457;BME280;54319;52.038;4.640;2022-12-18T08:31:42;46656.56;;;-144.53;81.75
67457;BME280;54319;52.038;4.640;2022-12-18T08:34:12;46646.59;;;-144.53;81.65
67457;BME280;54319;52.038;4.640;2022-12-18T08:36:39;46660.56;;;-144.53;81.93
67457;BME280;54319;52.038;4.640;2022-12-18T08:39:06;46642.63;;;-144.53;82.27
67457;BME280;54319;52.038;4.640;2022-12-18T08:41:33;46648.59;;;-144.53;82.33
67457;BME280;54319;52.038;4.640;2022-12-18T08:44:00;46638.63;;;-144.53;82.33
67457;BME280;54319;52.038;4.640;2022-12-18T08:46:45;46634.66;;;-144.53;82.16
67457;BME280;54319;52.038;4.640;2022-12-18T08:49:13;46650.59;;;-144.53;82.19
67457;BME280;54319;52.038;4.640;2022-12-18T08:51:40;46668.53;;;-144.53;81.88
67457;BME280;54319;52.038;4.640;2022-12-18T08:54:08;46634.66;;;-144.53;81.79
67457;BME280;54319;52.038;4.640;2022-12-18T08:56:37;46676.50;;;-144.53;81.72
67457;BME280;54319;52.038;4.640;2022-12-18T08:59:04;46692.44;;;-144.53;81.60
67457;BME280;54319;52.038;4.640;2022-12-18T09:01:31;46646.59;;;-144.53;81.44
67457;BME280;54319;52.038;4.640;2022-12-18T09:03:58;46678.47;;;-144.53;81.18
67457;BME280;54319;52.038;4.640;2022-12-18T09:06:26;46664.53;;;-144.53;81.23
67457;BME280;54319;52.038;4.640;2022-12-18T09:08:53;46692.44;;;-144.53;81.29
67457;BME280;54319;52.038;4.640;2022-12-18T09:11:23;46656.56;;;-144.53;81.01
67457;BME280;54319;52.038;4.640;2022-12-18T09:13:50;46654.56;;;-144.53;80.37
67457;BME280;54319;52.038;4.640;2022-12-18T09:16:18;46678.47;;;-144.53;80.32
67457;BME280;54319;52.038;4.640;2022-12-18T09:18:45;46696.41;;;-144.53;80.32
67457;BME280;54319;52.038;4.640;2022-12-18T09:21:13;46652.59;;;-144.53;80.37
67457;BME280;54319;52.038;4.640;2022-12-18T09:23:42;46634.66;;;-144.53;80.02
67457;BME280;54319;52.038;4.640;2022-12-18T09:26:09;46670.50;;;-144.53;80.54
67457;BME280;54319;52.038;4.640;2022-12-18T09:28:36;46692.44;;;-144.53;80.08
67457;BME280;54319;52.038;4.640;2022-12-18T09:31:04;46686.44;;;-144.53;80.00
67457;BME280;54319;52.038;4.640;2022-12-18T09:33:31;46664.53;;;-144.53;80.27
67457;BME280;54319;52.038;4.640;2022-12-18T09:36:01;46684.47;;;-144.53;80.15
67457;BME280;54319;52.038;4.640;2022-12-18T09:38:28;46704.38;;;-144.53;80.21
67457;BME280;54319;52.038;4.640;2022-12-18T09:41:00;46660.56;;;-144.53;80.16
67457;BME280;54319;52.038;4.640;2022-12-18T09:43:34;46644.63;;;-144.53;80.18
67457;BME280;54319;52.038;4.640;2022-12-18T09:46:07;46684.47;;;-144.53;80.13
67457;BME280;54319;52.038;4.640;2022-12-18T09:48:36;46670.50;;;-144.53;79.70
67457;BME280;54319;52.038;4.640;2022-12-18T09:51:18;46658.56;;;-144.53;79.65
67457;BME280;54319;52.038;4.640;2022-12-18T09:53:52;46684.47;;;-144.53;80.06
67457;BME280;54319;52.038;4.640;2022-12-18T09:56:22;46712.34;;;-144.53;79.91
67457;BME280;54319;52.038;4.640;2022-12-18T09:58:55;46664.53;;;-144.53;80.21
67457;BME280;54319;52.038;4.640;2022-12-18T10:01:25;46676.50;;;-144.53;79.94
67457;BME280;54319;52.038;4.640;2022-12-18T10:03:52;46726.28;;;-144.53;79.49
67457;BME280;54319;52.038;4.640;2022-12-18T10:06:23;46690.44;;;-144.53;79.46
67457;BME280;54319;52.038;4.640;2022-12-18T10:08:58;46656.56;;;-144.53;79.33
67457;BME280;54319;52.038;4.640;2022-12-18T10:11:40;46696.41;;;-144.53;79.27
67457;BME280;54319;52.038;4.640;2022-12-18T10:14:14;46696.41;;;-144.53;78.83
67457;BME280;54319;52.038;4.640;2022-12-18T10:16:55;46646.59;;;-144.53;79.32
67457;BME280;54319;52.038;4.640;2022-12-18T10:19:36;46652.59;;;-144.53;78.97
67457;BME280;54319;52.038;4.640;2022-12-18T10:22:14;46646.59;;;-144.53;78.41
67457;BME280;54319;52.038;4.640;2022-12-18T10:24:53;46684.47;;;-144.53;78.76
67457;BME280;54319;52.038;4.640;2022-12-18T10:27:25;46680.47;;;-144.53;78.62
67457;BME280;54319;52.038;4.640;2022-12-18T10:29:53;46682.47;;;-144.53;78.63
67457;BME280;54319;52.038;4.640;2022-12-18T10:32:23;46700.41;;;-144.53;78.35
67457;BME280;54319;52.038;4.640;2022-12-18T10:34:53;46690.44;;;-144.53;78.24
67457;BME280;54319;52.038;4.640;2022-12-18T10:37:22;46634.66;;;-144.53;78.39
67457;BME280;54319;52.038;4.640;2022-12-18T10:40:11;46678.47;;;-144.53;78.27
67457;BME280;54319;52.038;4.640;2022-12-18T10:42:41;46668.53;;;-144.53;78.02
67457;BME280;54319;52.038;4.640;2022-12-18T10:45:12;46700.41;;;-144.53;78.09
67457;BME280;54319;52.038;4.640;2022-12-18T10:47:44;46668.53;;;-144.53;78.22
67457;BME280;54319;52.038;4.640;2022-12-18T10:50:20;46656.56;;;-144.53;78.59
67457;BME280;54319;52.038;4.640;2022-12-18T10:52:55;46684.47;;;-144.53;78.27
67457;BME280;54319;52.038;4.640;2022-12-18T10:55:25;46700.41;;;-144.53;78.17
67457;BME280;54319;52.038;4.640;2022-12-18T10:58:13;46706.38;;;-144.53;78.11
67457;BME280;54319;52.038;4.640;2022-12-18T11:00:41;46722.31;;;-144.53;77.86
67457;BME280;54319;52.038;4.640;2022-12-18T11:03:29;46690.44;;;-144.53;77.03
67457;BME280;54319;52.038;4.640;2022-12-18T11:06:05;46696.41;;;-144.53;76.96
67457;BME280;54319;52.038;4.640;2022-12-18T11:08:33;46696.41;;;-144.53;77.19
67457;BME280;54319;52.038;4.640;2022-12-18T11:11:00;46724.31;;;-144.53;77.05
67457;BME280;54319;52.038;4.640;2022-12-18T11:13:30;46720.31;;;-144.53;77.40
67457;BME280;54319;52.038;4.640;2022-12-18T11:15:58;46706.38;;;-144.53;77.23
67457;BME280;54319;52.038;4.640;2022-12-18T11:18:28;46708.38;;;-144.53;76.95
67457;BME280;54319;52.038;4.640;2022-12-18T11:20:57;46736.25;;;-144.53;77.03
67457;BME280;54319;52.038;4.640;2022-12-18T11:23:25;46722.31;;;-144.53;76.90
67457;BME280;54319;52.038;4.640;2022-12-18T11:25:56;46676.50;;;-144.53;76.55
67457;BME280;54319;52.038;4.640;2022-12-18T11:28:28;46702.38;;;-144.53;76.52
67457;BME280;54319;52.038;4.640;2022-12-18T11:31:18;46704.38;;;-144.53;75.99
67457;BME280;54319;52.038;4.640;2022-12-18T11:33:50;46706.38;;;-144.53;76.34
67457;BME280;54319;52.038;4.640;2022-12-18T11:36:21;46726.28;;;-144.53;75.93
67457;BME280;54319;52.038;4.640;2022-12-18T11:38:50;46722.31;;;-144.53;75.57
67457;BME280;54319;52.038;4.640;2022-12-18T11:41:24;46708.38;;;-144.53;75.42
67457;BME280;54319;52.038;4.640;2022-12-18T11:44:19;46708.38;;;-144.53;75.52
67457;BME280;54319;52.038;4.640;2022-12-18T11:46:56;46724.31;;;-144.53;75.27
67457;BME280;54319;52.038;4.640;2022-12-18T11:49:32;46688.44;;;-144.53;75.93
67457;BME280;54319;52.038;4.640;2022-12-18T11:52:03;46710.34;;;-144.53;75.29
67457;BME280;54319;52.038;4.640;2022-12-18T11:54:31;46722.31;;;-144.53;75.88
67457;BME280;54319;52.038;4.640;2022-12-18T11:57:03;46694.41;;;-144.53;75.52
67457;BME280;54319;52.038;4.640;2022-12-18T11:59:39;46740.25;;;-144.53;75.50
67457;BME280;54319;52.038;4.640;2022-12-18T12:02:21;46708.38;;;-144.53;75.66
67457;BME280;54319;52.038;4.640;2022-12-18T12:05:03;46712.34;;;-144.53;75.44
67457;BME280;54319;52.038;4.640;2022-12-18T12:07:44;46732.28;;;-144.53;75.33
67457;BME280;54319;52.038;4.640;2022-12-18T12:10:26;46732.28;;;-144.53;74.71
67457;BME280;54319;52.038;4.640;2022-12-18T12:13:12;46692.44;;;-144.53;74.51
67457;BME280;54319;52.038;4.640;2022-12-18T12:15:51;46734.25;;;-144.53;74.63
67457;BME280;54319;52.038;4.640;2022-12-18T12:18:29;46736.25;;;-144.53;74.26
67457;BME280;54319;52.038;4.640;2022-12-18T12:21:03;46700.41;;;-144.53;74.16
67457;BME280;54319;52.038;4.640;2022-12-18T12:23:40;46700.41;;;-144.53;74.50
67457;BME280;54319;52.038;4.640;2022-12-18T12:26:12;46718.31;;;-144.53;74.83
67457;BME280;54319;52.038;4.640;2022-12-18T12:28:56;46720.31;;;-144.53;74.31
67457;BME280;54319;52.038;4.640;2022-12-18T12:31:43;46730.28;;;-144.53;74.74
67457;BME280;54319;52.038;4.640;2022-12-18T12:34:18;46696.41;;;-144.53;74.05
67457;BME280;54319;52.038;4.640;2022-12-18T12:36:59;46686.44;;;-144.53;74.13
67457;BME280;54319;52.038;4.640;2022-12-18T12:39:31;46738.25;;;-144.53;74.55
67457;BME280;54319;52.038;4.640;2022-12-18T12:42:01;46730.28;;;-144.53;74.57
67457;BME280;54319;52.038;4.640;2022-12-18T12:44:48;46722.31;;;-144.53;74.53
67457;BME280;54319;52.038;4.640;2022-12-18T12:47:22;46732.28;;;-144.53;74.63
67457;BME280;54319;52.038;4.640;2022-12-18T12:49:54;46704.38;;;-144.53;74.81
67457;BME280;54319;52.038;4.640;2022-12-18T12:52:28;46716.34;;;-144.53;74.64
67457;BME280;54319;52.038;4.640;2022-12-18T12:54:57;46722.31;;;-144.53;74.93
67457;BME280;54319;52.038;4.640;2022-12-18T12:57:32;46736.25;;;-144.53;74.94